Time;durP1;ratioP1;P1;durP2;ratioP2;P2;SDS_P1;SDS_P2;PMS_P1;PMS_P2;Temp;Humidity;BMP_temperature;BMP_pressure;BME280_temperature;BME280_humidity;BME280_pressure;Samples;Min_cycle;Max_cycle;Signal;HPM_P1;HPM_P2
2022/11/19 00:00:41;;;;;;;17.38;10.70;;;3.10;99.90;;;;;;4925793;29;20041;-83
2022/11/19 00:03:07;;;;;;;18.95;12.52;;;2.80;99.90;;;;;;4941466;29;20125;-83
2022/11/19 00:05:41;;;;;;;19.92;12.75;;;2.10;99.90;;;;;;4925100;29;20049;-83
2022/11/19 00:08:08;;;;;;;18.75;12.27;;;2.10;99.90;;;;;;4925280;29;20043;-82
2022/11/19 00:10:35;;;;;;;19.52;13.23;;;2.30;99.90;;;;;;4956458;29;20055;-83
2022/11/19 00:13:02;;;;;;;17.17;12.32;;;2.00;99.90;;;;;;4925417;29;20097;-80
2022/11/19 00:15:28;;;;;;;20.88;13.20;;;2.20;99.90;;;;;;4924964;29;20043;-82
2022/11/19 00:17:55;;;;;;;17.13;12.55;;;2.00;99.90;;;;;;4940710;29;20036;-83
2022/11/19 00:20:20;;;;;;;16.98;12.70;;;3.00;99.90;;;;;;4925406;29;20049;-82
2022/11/19 00:22:51;;;;;;;17.00;12.93;;;2.10;99.90;;;;;;4921203;29;20122;-83
2022/11/19 00:25:17;;;;;;;18.42;12.50;;;2.10;99.90;;;;;;4941051;28;20039;-83
2022/11/19 00:27:42;;;;;;;16.88;12.15;;;2.10;99.90;;;;;;4959976;28;20088;-83
2022/11/19 00:30:09;;;;;;;17.50;12.40;;;2.50;99.90;;;;;;4925136;29;20105;-83
2022/11/19 00:32:34;;;;;;;18.20;12.05;;;2.00;99.90;;;;;;4956459;28;20043;-83
2022/11/19 00:35:00;;;;;;;17.90;12.23;;;2.20;99.90;;;;;;4925218;29;20039;-83
2022/11/19 00:37:26;;;;;;;17.38;12.73;;;2.00;99.90;;;;;;4940801;29;20098;-83
2022/11/19 00:39:53;;;;;;;17.30;12.30;;;2.00;99.90;;;;;;4924712;29;20035;-83
2022/11/19 00:42:20;;;;;;;16.88;11.60;;;2.00;99.90;;;;;;4924911;29;20074;-82
2022/11/19 00:44:46;;;;;;;15.48;10.60;;;2.50;99.90;;;;;;4924951;29;20126;-82
2022/11/19 00:47:11;;;;;;;15.98;10.82;;;1.90;99.90;;;;;;4924431;29;20467;-83
2022/11/19 00:49:37;;;;;;;15.73;11.27;;;2.00;99.90;;;;;;4909209;29;20058;-83
2022/11/19 00:52:03;;;;;;;15.85;11.13;;;1.90;99.90;;;;;;4940291;29;20043;-82
2022/11/19 00:54:28;;;;;;;15.80;11.38;;;1.90;99.90;;;;;;4924660;29;20400;-83
2022/11/19 00:56:54;;;;;;;16.90;11.07;;;1.90;99.90;;;;;;4925079;29;20051;-83
2022/11/19 00:59:20;;;;;;;16.40;11.50;;;2.50;99.90;;;;;;4905833;29;20437;-83
2022/11/19 01:01:46;;;;;;;15.52;10.68;;;3.40;99.90;;;;;;4921239;29;20046;-83
2022/11/19 01:04:12;;;;;;;16.88;11.65;;;2.90;99.90;;;;;;4905376;29;20039;-82
2022/11/19 01:06:37;;;;;;;16.92;10.95;;;1.90;99.90;;;;;;4914421;29;20055;-83
2022/11/19 01:09:03;;;;;;;14.27;10.07;;;3.20;99.90;;;;;;4939314;29;20130;-82
2022/11/19 01:11:32;;;;;;;15.35;11.15;;;1.90;99.90;;;;;;4955635;29;20389;-82
2022/11/19 01:13:59;;;;;;;17.10;11.05;;;2.70;99.90;;;;;;4920572;29;20048;-83
2022/11/19 01:16:29;;;;;;;15.02;10.60;;;1.90;99.90;;;;;;4936844;29;20126;-83
2022/11/19 01:18:55;;;;;;;15.00;10.32;;;1.90;99.90;;;;;;4921006;29;20389;-83
2022/11/19 01:21:24;;;;;;;16.30;10.70;;;1.90;99.90;;;;;;4930764;29;20039;-83
2022/11/19 01:23:50;;;;;;;15.60;10.88;;;1.90;99.90;;;;;;4939777;29;20044;-82
2022/11/19 01:26:16;;;;;;;14.73;11.05;;;1.90;99.90;;;;;;4940080;29;20069;-83
2022/11/19 01:28:43;;;;;;;14.65;10.90;;;1.90;99.90;;;;;;4923791;29;20043;-82
2022/11/19 01:31:18;;;;;;;17.77;10.48;;;2.80;99.90;;;;;;4939821;29;20070;-83
2022/11/19 01:33:44;;;;;;;16.45;10.65;;;2.60;99.90;;;;;;4939650;29;20039;-83
2022/11/19 01:36:32;;;;;;;14.88;10.55;;;1.80;99.90;;;;;;4939492;29;20039;-82
2022/11/19 01:38:58;;;;;;;15.43;10.43;;;1.80;99.90;;;;;;4955088;29;20047;-83
2022/11/19 01:41:26;;;;;;;12.98;9.40;;;2.20;99.90;;;;;;4923716;29;20484;-82
2022/11/19 01:43:58;;;;;;;13.23;9.52;;;1.80;99.90;;;;;;4954802;29;20042;-83
2022/11/19 01:46:34;;;;;;;13.38;9.75;;;2.60;99.90;;;;;;4952267;29;20444;-82
2022/11/19 01:49:05;;;;;;;13.32;9.52;;;2.50;99.90;;;;;;4920309;29;20050;-81
2022/11/19 01:51:42;;;;;;;13.88;8.88;;;1.70;99.90;;;;;;4920268;29;20048;-83
2022/11/19 01:54:36;;;;;;;13.00;9.00;;;1.70;99.90;;;;;;4920522;29;20441;-82
2022/11/19 01:57:07;;;;;;;14.57;8.98;;;1.70;99.90;;;;;;4920628;29;20035;-82
2022/11/19 01:59:33;;;;;;;12.02;8.20;;;2.60;99.90;;;;;;4920082;29;20493;-82
2022/11/19 02:01:59;;;;;;;13.50;9.02;;;1.70;99.90;;;;;;4936075;29;20050;-82
2022/11/19 02:04:26;;;;;;;12.07;8.18;;;1.70;99.90;;;;;;4904503;29;20039;-82
2022/11/19 02:06:53;;;;;;;12.20;8.13;;;1.70;99.90;;;;;;4926262;29;20039;-82
2022/11/19 02:09:19;;;;;;;12.52;8.27;;;1.70;99.90;;;;;;4936063;29;20040;-83
2022/11/19 02:12:08;;;;;;;12.05;7.72;;;1.70;99.90;;;;;;4935895;29;20107;-82
2022/11/19 02:15:01;;;;;;;10.65;7.28;;;1.70;99.90;;;;;;4948917;29;20043;-82
2022/11/19 02:18:01;;;;;;;11.20;7.32;;;1.60;99.90;;;;;;4948840;29;20046;-82
2022/11/19 02:20:45;;;;;;;10.98;6.95;;;1.60;99.90;;;;;;4968154;28;20074;-82
2022/11/19 02:23:44;;;;;;;9.80;6.80;;;1.60;99.90;;;;;;4951372;29;20120;-83
2022/11/19 02:26:48;;;;;;;8.43;6.20;;;1.60;99.90;;;;;;4941479;29;20043;-82
2022/11/19 02:29:29;;;;;;;8.35;5.72;;;1.60;99.90;;;;;;4927219;29;20039;-82
2022/11/19 02:32:14;;;;;;;8.95;5.53;;;1.60;99.90;;;;;;4954500;28;20050;-82
2022/11/19 02:34:39;;;;;;;8.30;5.50;;;1.50;99.90;;;;;;4937118;29;20082;-82
2022/11/19 02:37:16;;;;;;;7.07;4.72;;;2.90;99.90;;;;;;4940541;29;20035;-80
2022/11/19 02:39:53;;;;;;;8.60;5.45;;;1.50;99.90;;;;;;4937855;29;20115;-83
2022/11/19 02:42:31;;;;;;;8.85;5.80;;;1.60;99.90;;;;;;4935539;29;20043;-82
2022/11/19 02:45:07;;;;;;;8.85;5.70;;;1.50;99.90;;;;;;4938454;29;20484;-82
2022/11/19 02:47:40;;;;;;;8.60;5.80;;;1.40;99.90;;;;;;4928472;29;20044;-83
2022/11/19 02:50:15;;;;;;;9.40;5.63;;;1.40;99.90;;;;;;4931612;29;20094;-82
2022/11/19 02:52:42;;;;;;;7.47;5.13;;;1.40;99.90;;;;;;4939479;29;20436;-81
2022/11/19 02:55:19;;;;;;;7.53;5.47;;;1.40;99.90;;;;;;4938798;29;20043;-81
2022/11/19 02:58:03;;;;;;;10.00;5.80;;;1.40;99.90;;;;;;4938441;29;20514;-83
2022/11/19 03:06:16;;;;;;;6.80;5.18;;;1.30;99.90;;;;;;4935219;29;20047;-83
2022/11/19 03:08:43;;;;;;;7.93;5.10;;;1.30;99.90;;;;;;4919927;29;20046;-83
2022/11/19 03:11:39;;;;;;;8.50;5.20;;;1.20;99.90;;;;;;4919381;29;20106;-82
2022/11/19 03:17:26;;;;;;;7.80;5.30;;;1.30;99.90;;;;;;4935630;29;20059;-83
2022/11/19 03:20:09;;;;;;;7.55;4.97;;;1.30;99.90;;;;;;4944518;29;20496;-83
2022/11/19 03:22:57;;;;;;;8.57;5.32;;;1.20;99.90;;;;;;4938939;29;20139;-83
2022/11/19 03:25:31;;;;;;;7.18;4.85;;;1.20;99.90;;;;;;4950312;28;20040;-83
2022/11/19 03:28:02;;;;;;;6.95;4.72;;;1.20;99.90;;;;;;4934545;29;20050;-82
2022/11/19 03:30:29;;;;;;;6.65;4.93;;;1.10;99.90;;;;;;4933088;28;20379;-80
2022/11/19 03:33:14;;;;;;;8.70;5.38;;;1.50;99.90;;;;;;4939643;29;20047;-82
2022/11/19 03:35:46;;;;;;;8.35;4.95;;;1.10;99.90;;;;;;4929822;29;20050;-81
2022/11/19 03:38:17;;;;;;;7.07;5.35;;;0.30;99.90;;;;;;4946351;29;20048;-81
2022/11/19 03:40:44;;;;;;;8.35;5.53;;;1.00;99.90;;;;;;4939072;29;20103;-82
2022/11/19 03:43:14;;;;;;;9.55;5.45;;;1.00;99.90;;;;;;4940321;29;20480;-83
2022/11/19 03:45:43;;;;;;;7.43;5.10;;;2.20;99.90;;;;;;4926457;29;20055;-81
2022/11/19 03:48:13;;;;;;;8.52;5.30;;;1.50;99.90;;;;;;4925819;29;20574;-82
2022/11/19 03:50:47;;;;;;;8.20;5.38;;;0.90;99.90;;;;;;4957843;29;20551;-80
2022/11/19 03:53:13;;;;;;;7.07;5.07;;;0.90;99.90;;;;;;4942440;29;20189;-81
2022/11/19 03:55:46;;;;;;;8.18;5.35;;;2.50;99.90;;;;;;4941463;29;20126;-80
2022/11/19 03:58:12;;;;;;;7.97;5.25;;;0.80;99.90;;;;;;4941609;29;20623;-81
2022/11/19 04:00:38;;;;;;;7.55;5.30;;;1.00;99.90;;;;;;4954621;29;20047;-83
2022/11/19 04:03:04;;;;;;;8.00;5.45;;;2.40;99.90;;;;;;4924478;29;20046;-81
2022/11/19 04:05:30;;;;;;;10.57;5.40;;;0.60;99.90;;;;;;4941959;29;20078;-80
2022/11/19 04:07:55;;;;;;;8.23;5.50;;;0.60;99.90;;;;;;4941882;29;20098;-80
2022/11/19 04:10:21;;;;;;;8.32;5.10;;;0.60;99.90;;;;;;4941336;29;20415;-81
2022/11/19 04:12:47;;;;;;;9.48;5.95;;;0.60;99.90;;;;;;4958531;29;20054;-80
2022/11/19 04:15:13;;;;;;;9.15;5.93;;;0.50;99.90;;;;;;4925903;29;20058;-79
2022/11/19 04:17:39;;;;;;;9.05;6.15;;;0.50;99.90;;;;;;4958172;29;20039;-80
2022/11/19 04:20:07;;;;;;;9.70;6.28;;;0.50;99.90;;;;;;4926587;29;20035;-80
2022/11/19 04:22:33;;;;;;;7.97;5.53;;;0.50;99.90;;;;;;4941661;29;20066;-80
2022/11/19 04:24:58;;;;;;;9.60;6.10;;;0.40;99.90;;;;;;4941350;29;20056;-80
2022/11/19 04:27:24;;;;;;;10.23;6.25;;;2.00;99.90;;;;;;4926159;29;20039;-80
2022/11/19 04:29:50;;;;;;;9.43;6.07;;;0.40;99.90;;;;;;4942549;29;20137;-80
2022/11/19 04:32:17;;;;;;;8.48;5.68;;;1.70;99.90;;;;;;4926535;29;20488;-81
2022/11/19 04:34:42;;;;;;;8.68;6.10;;;0.30;99.90;;;;;;4942512;29;20054;-81
2022/11/19 04:37:08;;;;;;;9.63;6.05;;;0.30;99.90;;;;;;4940579;29;20036;-80
2022/11/19 04:39:34;;;;;;;9.20;5.88;;;0.20;99.90;;;;;;4942387;29;20066;-80
2022/11/19 04:42:00;;;;;;;8.65;5.65;;;1.20;99.90;;;;;;4926294;29;20039;-79
2022/11/19 04:44:25;;;;;;;8.73;5.75;;;0.20;99.90;;;;;;4957409;28;20054;-81
2022/11/19 04:46:51;;;;;;;9.82;6.18;;;0.70;99.90;;;;;;4942011;29;20035;-80
2022/11/19 04:49:17;;;;;;;8.63;6.13;;;0.10;99.90;;;;;;4939807;29;20043;-80
2022/11/19 04:51:42;;;;;;;9.02;5.85;;;0.10;99.90;;;;;;4941182;29;20050;-80
2022/11/19 04:54:08;;;;;;;10.82;6.45;;;0.10;99.90;;;;;;4940278;29;20039;-80
2022/11/19 04:56:35;;;;;;;9.63;6.00;;;0.10;99.90;;;;;;4940733;29;20098;-80
2022/11/19 04:59:01;;;;;;;9.95;6.05;;;0.00;99.90;;;;;;4956792;29;20090;-80
2022/11/19 05:01:27;;;;;;;8.63;5.80;;;1.20;99.90;;;;;;4936755;29;20079;-80
2022/11/19 05:03:53;;;;;;;8.77;5.82;;;0.00;99.90;;;;;;4924466;29;20086;-80
2022/11/19 05:06:18;;;;;;;9.55;5.93;;;0.00;99.90;;;;;;4939934;29;20480;-80
2022/11/19 05:08:44;;;;;;;9.48;5.78;;;-0.10;99.90;;;;;;4924483;29;20163;-80
2022/11/19 05:11:10;;;;;;;8.82;5.55;;;-0.10;99.90;;;;;;4940093;29;20069;-80
2022/11/19 05:13:36;;;;;;;9.93;6.50;;;-0.10;99.90;;;;;;4940115;29;20074;-80
2022/11/19 05:16:01;;;;;;;11.65;6.32;;;-0.10;99.90;;;;;;4939782;29;20039;-80
2022/11/19 05:18:27;;;;;;;9.15;6.32;;;-0.10;99.90;;;;;;4951469;28;20038;-80
2022/11/19 05:20:53;;;;;;;10.13;6.40;;;-0.10;99.90;;;;;;4939541;29;20085;-80
2022/11/19 05:23:19;;;;;;;8.80;6.03;;;-0.20;99.90;;;;;;4939938;29;20069;-80
2022/11/19 05:25:45;;;;;;;9.25;6.07;;;-0.20;99.90;;;;;;4939874;29;20400;-80
2022/11/19 05:28:11;;;;;;;11.88;5.55;;;-0.20;99.90;;;;;;4956349;29;20043;-81
2022/11/19 05:30:37;;;;;;;8.95;5.50;;;-0.20;99.90;;;;;;4920618;29;20412;-80
2022/11/19 05:33:02;;;;;;;8.50;5.70;;;-0.30;99.90;;;;;;4946910;29;20403;-79
2022/11/19 05:35:28;;;;;;;9.80;5.57;;;-0.30;99.90;;;;;;4953389;28;20047;-80
2022/11/19 05:37:54;;;;;;;9.82;5.45;;;-0.30;99.90;;;;;;4937524;28;20539;-80
2022/11/19 05:40:19;;;;;;;7.88;5.03;;;0.70;99.90;;;;;;4940429;28;20048;-80
2022/11/19 05:42:45;;;;;;;8.63;5.55;;;-0.30;99.90;;;;;;4915628;29;20043;-80
2022/11/19 05:45:11;;;;;;;8.75;5.85;;;-0.40;99.90;;;;;;4938347;29;20602;-80
2022/11/19 05:47:37;;;;;;;8.52;5.43;;;1.10;99.90;;;;;;4924158;29;20047;-80
2022/11/19 05:50:03;;;;;;;7.88;5.80;;;0.10;99.90;;;;;;4938899;29;20479;-79
2022/11/19 05:52:29;;;;;;;8.50;5.70;;;-0.40;99.90;;;;;;4955576;29;20464;-79
2022/11/19 05:54:55;;;;;;;8.88;5.82;;;-0.50;99.90;;;;;;4955200;28;20052;-80
2022/11/19 05:57:20;;;;;;;11.13;5.28;;;-0.50;99.90;;;;;;4924613;29;20094;-80
2022/11/19 05:59:46;;;;;;;9.00;5.60;;;-0.50;99.90;;;;;;4940189;29;20486;-80
2022/11/19 06:02:12;;;;;;;8.82;5.60;;;1.40;99.90;;;;;;4939808;29;20043;-79
2022/11/19 06:04:38;;;;;;;9.90;5.57;;;-0.60;99.90;;;;;;4934541;29;20058;-80
2022/11/19 06:07:04;;;;;;;8.60;5.28;;;0.00;99.90;;;;;;4955605;29;20043;-80
2022/11/19 06:09:29;;;;;;;9.20;5.50;;;1.10;99.90;;;;;;4939145;29;20928;-80
2022/11/19 06:11:55;;;;;;;7.88;5.38;;;-0.70;99.90;;;;;;4938959;29;20500;-80
2022/11/19 06:14:23;;;;;;;8.88;5.88;;;-0.70;99.90;;;;;;4936887;29;20055;-80
2022/11/19 06:16:57;;;;;;;7.28;4.78;;;-0.70;99.90;;;;;;4936065;29;20108;-80
2022/11/19 06:19:24;;;;;;;7.63;5.30;;;-0.70;99.90;;;;;;4951752;29;20043;-80
2022/11/19 06:21:50;;;;;;;8.50;5.55;;;-0.60;99.90;;;;;;4951557;29;20044;-81
2022/11/19 06:24:17;;;;;;;8.48;5.40;;;-0.80;99.90;;;;;;4912847;29;20046;-80
2022/11/19 06:26:43;;;;;;;8.25;5.25;;;-0.80;99.90;;;;;;4904559;29;20039;-80
2022/11/19 06:29:11;;;;;;;8.73;5.60;;;0.70;99.90;;;;;;4904785;29;20055;-80
2022/11/19 06:31:37;;;;;;;10.45;5.97;;;-0.80;99.90;;;;;;4920795;29;20047;-80
2022/11/19 06:34:02;;;;;;;8.85;5.75;;;-0.40;99.90;;;;;;4936385;29;20050;-81
2022/11/19 06:36:28;;;;;;;10.40;6.15;;;-0.90;99.90;;;;;;4919821;29;20045;-80
2022/11/19 06:38:54;;;;;;;7.75;5.53;;;0.30;99.90;;;;;;4904514;29;20035;-80
2022/11/19 06:41:20;;;;;;;10.00;6.28;;;-0.90;99.90;;;;;;4935749;29;20085;-81
2022/11/19 06:43:45;;;;;;;8.48;5.72;;;-0.90;99.90;;;;;;4953493;28;20074;-80
2022/11/19 06:46:14;;;;;;;7.65;5.90;;;-1.00;99.90;;;;;;4937965;29;20138;-80
2022/11/19 06:48:40;;;;;;;9.60;6.07;;;-1.00;99.90;;;;;;4942869;29;20047;-80
2022/11/19 06:51:06;;;;;;;11.30;6.78;;;-1.00;99.90;;;;;;4955262;29;20507;-80
2022/11/19 06:53:32;;;;;;;10.57;6.70;;;-0.80;99.90;;;;;;4937173;29;20101;-80
2022/11/19 06:55:59;;;;;;;10.82;6.80;;;-1.00;99.90;;;;;;4933471;29;20051;-80
2022/11/19 06:58:25;;;;;;;11.25;7.05;;;-1.00;99.90;;;;;;4954988;29;20039;-80
2022/11/19 07:00:51;;;;;;;10.50;7.00;;;-0.60;99.90;;;;;;4923231;29;20392;-81
2022/11/19 07:03:17;;;;;;;10.18;6.70;;;-1.00;99.90;;;;;;4929599;29;20397;-80
2022/11/19 07:05:43;;;;;;;11.70;6.93;;;0.00;99.90;;;;;;4906689;28;20570;-81
2022/11/19 07:08:08;;;;;;;10.95;7.03;;;-1.00;99.90;;;;;;4954537;29;20043;-80
2022/11/19 07:10:34;;;;;;;12.55;7.30;;;-1.10;99.90;;;;;;4923212;29;20126;-82
2022/11/19 07:13:01;;;;;;;10.27;7.10;;;-1.10;99.90;;;;;;4938765;29;20041;-81
2022/11/19 07:15:26;;;;;;;11.57;7.30;;;-1.10;99.90;;;;;;4952335;29;20043;-80
2022/11/19 07:17:53;;;;;;;9.88;7.05;;;-1.10;99.90;;;;;;4949984;29;20036;-81
2022/11/19 07:20:19;;;;;;;10.75;7.57;;;-1.10;99.90;;;;;;4923743;29;20036;-79
2022/11/19 07:22:45;;;;;;;10.90;7.10;;;-1.10;99.90;;;;;;4923986;29;20035;-80
2022/11/19 07:25:11;;;;;;;10.98;7.10;;;-1.10;99.90;;;;;;4933184;29;20055;-80
2022/11/19 07:27:38;;;;;;;11.20;7.28;;;-1.00;99.90;;;;;;4945687;29;20044;-79
2022/11/19 07:30:06;;;;;;;11.27;7.70;;;-1.10;99.90;;;;;;4940206;29;20097;-79
2022/11/19 07:32:32;;;;;;;12.35;7.80;;;-1.10;99.90;;;;;;4940406;29;20046;-80
2022/11/19 07:34:58;;;;;;;14.07;8.48;;;-1.10;99.90;;;;;;4939739;29;20054;-80
2022/11/19 07:37:24;;;;;;;13.45;8.63;;;-1.10;99.90;;;;;;4940096;29;20039;-82
2022/11/19 07:39:50;;;;;;;12.45;8.10;;;-1.10;99.90;;;;;;4941588;28;20031;-81
2022/11/19 07:44:59;;;;;;;12.80;8.77;;;-1.00;99.90;;;;;;4938486;29;20126;-82
2022/11/19 07:47:25;;;;;;;13.38;8.45;;;-1.70;99.90;;;;;;4921796;29;20519;-81
2022/11/19 07:49:51;;;;;;;13.07;8.98;;;-1.10;99.90;;;;;;4937484;29;20050;-81
2022/11/19 07:52:17;;;;;;;11.98;8.02;;;0.50;99.90;;;;;;4923103;29;20040;-80
2022/11/19 07:54:42;;;;;;;13.10;8.38;;;0.20;99.90;;;;;;4921104;29;20079;-80
2022/11/19 07:57:11;;;;;;;13.63;9.40;;;-1.00;99.90;;;;;;4950731;28;20039;-82
2022/11/19 07:59:37;;;;;;;12.90;8.52;;;-1.00;99.90;;;;;;4942383;29;20391;-81
2022/11/19 08:02:03;;;;;;;14.30;8.70;;;-0.90;99.90;;;;;;4939957;29;20051;-82
2022/11/19 08:04:28;;;;;;;14.15;8.93;;;-0.90;99.90;;;;;;4936383;29;20047;-83
2022/11/19 08:06:54;;;;;;;15.05;9.48;;;0.20;99.90;;;;;;4942253;28;20070;-82
2022/11/19 08:09:20;;;;;;;16.88;9.40;;;-0.90;99.90;;;;;;4956122;28;20039;-80
2022/11/19 08:11:46;;;;;;;12.73;8.70;;;-0.80;99.90;;;;;;4937215;29;20051;-80
2022/11/19 08:14:12;;;;;;;14.60;9.48;;;0.70;99.90;;;;;;4933102;29;20198;-80
2022/11/19 08:19:23;;;;;;;14.43;9.02;;;-0.70;99.90;;;;;;4953468;29;20074;-79
2022/11/19 08:21:49;;;;;;;14.80;9.85;;;0.10;99.90;;;;;;4927651;29;20122;-81
2022/11/19 08:24:17;;;;;;;15.60;9.10;;;-0.70;99.90;;;;;;4942207;29;20043;-81
2022/11/19 08:26:43;;;;;;;15.50;9.48;;;-0.60;99.90;;;;;;4921722;29;20047;-79
2022/11/19 08:29:11;;;;;;;13.82;8.88;;;-0.60;99.90;;;;;;4957526;29;20055;-79
2022/11/19 08:31:37;;;;;;;14.68;8.95;;;-0.60;99.90;;;;;;4957430;28;20047;-79
2022/11/19 08:34:03;;;;;;;14.60;9.07;;;-0.50;99.90;;;;;;4940752;29;20043;-79
2022/11/19 08:36:29;;;;;;;14.32;9.02;;;-0.50;99.90;;;;;;4940604;29;20035;-79
2022/11/19 08:38:59;;;;;;;14.90;10.05;;;-0.50;99.90;;;;;;4940444;29;20090;-80
2022/11/19 08:44:11;;;;;;;14.30;9.18;;;0.40;99.90;;;;;;4956869;29;20403;-78
2022/11/19 08:46:37;;;;;;;13.52;8.98;;;-0.30;99.90;;;;;;4923067;29;20085;-79
2022/11/19 08:49:03;;;;;;;15.38;9.65;;;-0.30;99.90;;;;;;4925061;29;20071;-80
2022/11/19 08:51:29;;;;;;;13.85;9.25;;;0.20;99.90;;;;;;4941437;29;20063;-82
2022/11/19 08:53:55;;;;;;;15.13;9.63;;;-0.20;99.90;;;;;;4941946;29;20051;-80
2022/11/19 08:56:22;;;;;;;17.67;10.05;;;-0.20;99.90;;;;;;4959388;29;20054;-82
2022/11/19 08:58:48;;;;;;;14.18;9.45;;;0.50;99.90;;;;;;4929953;29;20047;-81
2022/11/19 09:01:17;;;;;;;13.05;9.07;;;0.10;99.90;;;;;;4936805;29;20042;-80
2022/11/19 09:03:44;;;;;;;13.68;9.10;;;0.40;99.90;;;;;;4938925;29;20044;-81
2022/11/19 09:06:10;;;;;;;12.60;7.90;;;0.60;99.90;;;;;;4957506;29;20511;-82
2022/11/19 09:08:36;;;;;;;13.85;9.02;;;0.80;99.90;;;;;;4911555;29;20079;-81
2022/11/19 09:11:21;;;;;;;13.43;8.27;;;1.10;99.90;;;;;;4957101;28;20623;-81
2022/11/19 09:13:47;;;;;;;11.60;8.00;;;1.20;99.90;;;;;;4957006;29;20077;-81
2022/11/19 09:16:13;;;;;;;12.15;8.50;;;1.50;99.90;;;;;;4942499;29;20043;-82
2022/11/19 09:18:40;;;;;;;11.13;7.53;;;2.90;99.90;;;;;;4927189;29;20040;-82
2022/11/19 09:21:08;;;;;;;11.27;7.70;;;1.80;99.90;;;;;;4944240;29;20148;-83
2022/11/19 09:23:34;;;;;;;11.07;7.68;;;1.80;99.90;;;;;;4943271;29;20559;-82
2022/11/19 09:26:26;;;;;;;10.57;7.70;;;1.90;99.90;;;;;;4958999;29;20047;-81
2022/11/19 09:28:52;;;;;;;10.25;7.18;;;2.50;99.90;;;;;;4955178;28;20083;-83
2022/11/19 09:31:19;;;;;;;10.95;7.07;;;2.10;99.90;;;;;;4909879;29;20043;-80
2022/11/19 09:33:49;;;;;;;10.25;7.35;;;1.90;99.90;;;;;;4941166;29;20039;-83
2022/11/19 09:36:17;;;;;;;10.02;6.90;;;2.30;99.90;;;;;;4941515;29;20129;-83
2022/11/19 09:38:43;;;;;;;9.80;7.30;;;2.00;99.90;;;;;;4925955;29;20043;-91
2022/11/19 09:41:39;;;;;;;11.52;7.10;;;2.10;99.90;;;;;;4944964;29;20087;-90
2022/11/19 09:44:11;;;;;;;9.02;6.75;;;2.60;99.90;;;;;;4942002;29;20106;-81
2022/11/19 09:46:53;;;;;;;10.35;6.93;;;2.90;99.90;;;;;;4940168;29;20121;-81
2022/11/19 09:49:29;;;;;;;8.98;6.82;;;3.00;99.90;;;;;;4957164;29;20082;-81
2022/11/19 09:52:03;;;;;;;10.52;7.25;;;3.10;99.90;;;;;;4941768;29;20050;-84
2022/11/19 09:54:29;;;;;;;12.65;7.65;;;3.60;99.90;;;;;;4937989;29;20050;-85
2022/11/19 09:56:57;;;;;;;9.40;6.60;;;3.80;99.90;;;;;;4941086;29;20047;-87
2022/11/19 09:59:34;;;;;;;9.95;7.93;;;4.80;99.90;;;;;;4926403;29;20043;-86
2022/11/19 10:01:59;;;;;;;8.98;6.28;;;5.30;99.90;;;;;;4942169;29;20105;-83
2022/11/19 10:04:29;;;;;;;8.32;6.47;;;6.40;99.90;;;;;;4940813;29;20043;-85
2022/11/19 10:07:20;;;;;;;8.80;6.63;;;5.70;99.90;;;;;;4926673;29;20050;-85
2022/11/19 10:10:14;;;;;;;7.78;5.85;;;5.80;99.90;;;;;;4924514;29;20130;-86
2022/11/19 10:13:10;;;;;;;9.68;6.82;;;6.40;98.90;;;;;;4939499;29;20580;-86
2022/11/19 10:15:58;;;;;;;7.57;5.65;;;5.80;98.50;;;;;;4935315;29;20075;-85
2022/11/19 10:18:36;;;;;;;8.48;5.95;;;5.80;99.10;;;;;;4959020;29;20061;-85
2022/11/19 10:21:26;;;;;;;9.95;6.32;;;6.00;99.30;;;;;;4955969;29;20043;-82
2022/11/19 10:23:55;;;;;;;8.15;6.15;;;5.90;98.00;;;;;;4958380;29;20109;-84
2022/11/19 10:26:35;;;;;;;8.65;6.30;;;5.90;98.40;;;;;;4950989;29;20083;-83
2022/11/19 10:29:11;;;;;;;7.70;6.00;;;4.80;98.40;;;;;;4954222;29;20044;-84
2022/11/19 10:31:42;;;;;;;;;;;4.20;99.40;;;;;;4925271;29;20047;-85
2022/11/19 10:34:27;;;;;;;9.27;5.85;;;3.80;99.50;;;;;;4925393;29;19980;-87
2022/11/19 10:37:06;;;;;;;9.10;5.80;;;3.60;99.90;;;;;;4923365;29;20094;-85
2022/11/19 10:39:45;;;;;;;8.63;5.72;;;3.80;99.90;;;;;;4963482;29;20036;-82
2022/11/19 10:42:27;;;;;;;9.13;5.53;;;3.30;99.90;;;;;;4952522;29;20480;-84
2022/11/19 10:45:00;;;;;;;8.18;6.50;;;3.20;99.80;;;;;;4950278;29;20043;-83
2022/11/19 10:47:36;;;;;;;8.25;6.45;;;3.10;99.90;;;;;;4960982;29;20043;-83
2022/11/19 10:50:02;;;;;;;;;;;3.00;99.90;;;;;;4956908;29;20078;-85
2022/11/19 10:52:35;;;;;;;6.40;5.28;;;3.00;99.90;;;;;;4956522;29;19918;-86
2022/11/19 10:55:27;;;;;;;8.73;6.05;;;3.30;99.90;;;;;;4939257;29;20039;-83
2022/11/19 10:58:23;;;;;;;7.88;5.80;;;4.10;99.90;;;;;;4949412;29;20044;-83
2022/11/19 11:00:53;;;;;;;7.75;5.82;;;3.80;99.90;;;;;;4941215;29;20463;-84
2022/11/19 11:03:24;;;;;;;7.15;5.35;;;4.00;99.90;;;;;;4925389;29;20043;-84
2022/11/19 11:06:13;;;;;;;7.65;5.85;;;4.80;99.90;;;;;;4931160;29;20043;-85
2022/11/19 11:08:53;;;;;;;8.32;5.68;;;5.50;98.20;;;;;;4936448;29;20044;-86
2022/11/19 11:14:50;;;;;;;7.50;5.40;;;6.00;96.10;;;;;;4928416;29;20074;-83
2022/11/19 11:17:02;;;;;;;6.78;5.40;;;6.70;97.00;;;;;;4956468;29;20464;-84
2022/11/19 11:19:29;;;;;;;7.47;5.43;;;6.10;97.20;;;;;;4940456;29;20499;-84
2022/11/19 11:21:56;;;;;;;6.38;5.05;;;5.90;96.80;;;;;;4939526;29;20035;-84
2022/11/19 11:24:31;;;;;;;7.63;5.40;;;6.00;96.50;;;;;;4940166;29;20039;-84
2022/11/19 11:27:20;;;;;;;7.25;5.38;;;6.20;95.10;;;;;;4946617;29;20094;-85
2022/11/19 11:29:46;;;;;;;7.90;5.47;;;6.00;94.80;;;;;;4938281;29;20071;-83
2022/11/19 11:32:27;;;;;;;7.13;5.03;;;5.80;94.20;;;;;;4939702;29;20107;-86
2022/11/19 11:34:52;;;;;;;6.32;4.88;;;6.00;94.50;;;;;;4955243;29;20492;-82
2022/11/19 11:37:18;;;;;;;6.45;4.93;;;6.40;94.50;;;;;;4938802;29;20043;-83
2022/11/19 11:39:49;;;;;;;8.25;5.80;;;6.00;94.80;;;;;;4927691;29;20456;-84
2022/11/19 11:42:20;;;;;;;9.57;5.88;;;6.00;94.70;;;;;;4939273;29;20050;-83
2022/11/19 11:44:52;;;;;;;7.78;5.55;;;6.00;94.60;;;;;;4937139;29;20055;-82
2022/11/19 11:47:25;;;;;;;6.68;5.35;;;5.80;94.60;;;;;;4952726;29;20058;-83
2022/11/19 11:50:20;;;;;;;8.52;6.82;;;5.50;95.10;;;;;;4936618;29;20071;-82
2022/11/19 11:52:51;;;;;;;8.13;6.63;;;5.10;95.80;;;;;;4945553;28;20051;-82
2022/11/19 11:55:23;;;;;;;7.05;5.18;;;4.80;96.30;;;;;;4940454;29;20051;-82
2022/11/19 11:57:54;;;;;;;8.00;5.40;;;4.70;96.10;;;;;;4931824;29;20039;-83
2022/11/19 12:00:40;;;;;;;7.75;5.70;;;4.40;95.70;;;;;;4941074;29;20047;-82
2022/11/19 12:03:12;;;;;;;7.05;5.20;;;4.10;96.20;;;;;;4940067;29;20075;-82
2022/11/19 12:05:59;;;;;;;6.60;4.95;;;4.70;97.10;;;;;;4940501;29;20511;-82
2022/11/19 12:08:33;;;;;;;6.60;5.57;;;4.90;96.80;;;;;;4940818;29;20051;-81
2022/11/19 12:11:09;;;;;;;9.10;5.60;;;3.70;97.00;;;;;;4938150;29;20507;-82
2022/11/19 12:13:44;;;;;;;8.75;5.65;;;3.60;97.30;;;;;;4931680;29;20055;-81
2022/11/19 12:16:48;;;;;;;7.50;5.78;;;3.60;97.80;;;;;;4929819;29;20074;-82
2022/11/19 12:19:24;;;;;;;8.13;5.70;;;3.50;98.10;;;;;;4886322;29;20135;-82
2022/11/19 12:22:21;;;;;;;9.70;6.47;;;3.50;98.30;;;;;;4918108;29;20474;-82
2022/11/19 12:25:05;;;;;;;10.55;6.40;;;3.40;98.60;;;;;;4916827;29;20074;-82
2022/11/19 12:27:50;;;;;;;10.23;7.20;;;3.40;98.50;;;;;;4931611;29;20113;-81
2022/11/19 12:30:21;;;;;;;9.75;7.03;;;3.30;98.90;;;;;;4914595;29;20078;-81
2022/11/19 12:33:02;;;;;;;8.77;5.80;;;3.30;99.30;;;;;;4912866;29;20058;-81
2022/11/19 12:35:55;;;;;;;9.52;6.00;;;3.30;99.50;;;;;;4928990;29;20094;-82
2022/11/19 12:38:31;;;;;;;10.23;7.20;;;3.40;99.50;;;;;;4914452;29;20395;-81
2022/11/19 12:41:05;;;;;;;8.15;6.03;;;3.50;99.30;;;;;;4912756;29;20051;-82
2022/11/19 12:43:37;;;;;;;8.25;5.47;;;3.60;99.10;;;;;;4917174;29;20047;-81
2022/11/19 12:46:18;;;;;;;6.60;4.88;;;3.50;99.20;;;;;;4914827;29;20098;-82
2022/11/19 12:49:02;;;;;;;6.97;5.05;;;3.50;99.30;;;;;;4914847;29;20035;-82
2022/11/19 12:51:44;;;;;;;6.85;4.78;;;3.50;99.30;;;;;;4928887;29;20047;-81
2022/11/19 12:54:16;;;;;;;5.70;4.30;;;4.80;99.40;;;;;;4915159;29;20090;-81
2022/11/19 12:57:25;;;;;;;7.07;4.00;;;3.50;99.30;;;;;;4931002;29;20050;-82
2022/11/19 13:00:11;;;;;;;6.22;4.30;;;3.60;99.20;;;;;;4882861;29;20055;-81
2022/11/19 13:02:59;;;;;;;6.68;3.95;;;3.70;98.70;;;;;;4913946;29;20044;-81
2022/11/19 13:05:51;;;;;;;5.95;4.07;;;3.80;98.90;;;;;;4911959;29;20050;-81
2022/11/19 13:08:38;;;;;;;6.15;4.35;;;4.10;98.50;;;;;;4910408;29;20052;-81
2022/11/19 13:11:25;;;;;;;6.65;4.60;;;4.40;98.60;;;;;;4916079;29;20051;-82
2022/11/19 13:13:58;;;;;;;7.65;5.40;;;4.50;98.70;;;;;;4953835;29;20079;-82
2022/11/19 13:16:26;;;;;;;6.35;4.70;;;4.40;98.40;;;;;;4938605;29;20035;-82
2022/11/19 13:19:01;;;;;;;7.25;4.28;;;4.40;98.60;;;;;;4953661;29;20035;-81
2022/11/19 13:21:42;;;;;;;8.02;5.07;;;4.40;99.00;;;;;;4951923;29;20086;-84
2022/11/19 13:24:24;;;;;;;5.97;4.50;;;4.60;99.00;;;;;;4937554;29;20035;-83
2022/11/19 13:26:57;;;;;;;8.15;5.38;;;4.60;97.90;;;;;;4937139;29;20663;-84
2022/11/19 13:29:32;;;;;;;6.82;5.25;;;5.50;98.90;;;;;;4936372;28;20535;-83